< < Back
Terminal Aerodrome Forecast


Current Version              Previous Versions:   1  2  3  4  5  6  7  8  9  

Terminal Aerodrome Forecast

855
FTUS44 KOHX 292239 AAA
TAFCSV
TAF AMD
KCSV 292239Z 2923/3018 26008KT P6SM BKN120
     FM300600 21002KT 2SM BR BKN005=



Latest METAR

651
SAUS70 KWBC 301300 RRK
MTRCSV
METAR KCSV 301253Z AUTO 26005KT 10SM SCT009 22/20 A3008 RMK AO2 SLP166
T02220200


USA.gov is the U.S. government's official web portal to all federal, state and local government web resources and services.